Time;durP1;ratioP1;P1;durP2;ratioP2;P2;SDS_P1;SDS_P2;PMS_P1;PMS_P2;Temp;Humidity;BMP_temperature;BMP_pressure;BME280_temperature;BME280_humidity;BME280_pressure;Samples;Min_cycle;Max_cycle;Signal;HPM_P1;HPM_P2
2022/04/22 00:01:17;;;;;;;0.40;0.40;;;9.50;99.90;;;;;;4961220;28;20049;-75
2022/04/22 00:03:43;;;;;;;0.40;0.40;;;9.40;99.90;;;;;;4951946;28;20050;-77
2022/04/22 00:06:09;;;;;;;0.45;0.45;;;9.30;99.90;;;;;;4952207;28;20055;-76
2022/04/22 00:08:36;;;;;;;0.32;0.32;;;9.30;99.90;;;;;;4952034;28;20047;-79
2022/04/22 00:13:45;;;;;;;0.30;0.30;;;9.10;99.90;;;;;;4963931;28;20146;-78
2022/04/22 00:16:11;;;;;;;0.38;0.38;;;9.00;99.90;;;;;;4969210;28;20504;-76
2022/04/22 00:18:37;;;;;;;0.30;0.30;;;8.90;99.90;;;;;;4949524;28;20392;-76
2022/04/22 00:21:04;;;;;;;0.32;0.32;;;8.90;99.90;;;;;;4962409;28;20074;-77
2022/04/22 00:23:29;;;;;;;0.50;0.50;;;8.90;99.90;;;;;;4945365;28;20059;-79
2022/04/22 00:25:56;;;;;;;0.50;0.50;;;8.90;99.90;;;;;;4958120;28;20042;-78
2022/04/22 00:28:23;;;;;;;0.40;0.40;;;8.70;99.90;;;;;;4943483;28;20087;-76
2022/04/22 00:30:48;;;;;;;0.45;0.45;;;8.70;99.90;;;;;;4961847;28;20052;-75
2022/04/22 00:33:15;;;;;;;0.50;0.50;;;8.70;99.90;;;;;;4962135;28;20034;-78
2022/04/22 00:35:41;;;;;;;0.40;0.40;;;8.70;99.90;;;;;;4956346;28;20397;-76
2022/04/22 00:38:08;;;;;;;0.52;0.52;;;8.60;99.90;;;;;;4948107;28;20042;-76
2022/04/22 00:40:33;;;;;;;0.50;0.50;;;8.60;99.90;;;;;;4957263;28;20062;-77
2022/04/22 00:43:12;;;;;;;0.50;0.50;;;8.50;99.90;;;;;;4953885;28;20497;-78
2022/04/22 00:45:37;;;;;;;0.40;0.40;;;8.60;99.90;;;;;;4949139;28;20034;-75
2022/04/22 00:48:03;;;;;;;0.45;0.45;;;8.60;99.90;;;;;;4952260;28;20077;-76
2022/04/22 00:50:30;;;;;;;0.47;0.47;;;8.60;99.90;;;;;;4964505;28;20122;-80
2022/04/22 00:52:55;;;;;;;0.43;0.43;;;8.60;99.90;;;;;;4987124;28;20403;-78
2022/04/22 00:55:21;;;;;;;0.40;0.40;;;8.60;99.90;;;;;;4946352;28;20045;-78
2022/04/22 00:57:48;;;;;;;0.30;0.30;;;8.60;99.90;;;;;;4952337;28;20047;-77
2022/04/22 01:00:14;;;;;;;0.50;0.50;;;8.60;99.90;;;;;;4937324;28;20051;-77
2022/04/22 01:02:39;;;;;;;0.80;0.80;;;8.60;99.90;;;;;;4948952;28;20135;-77
2022/04/22 01:10:34;;;;;;;0.40;0.40;;;8.60;99.90;;;;;;4927188;28;20062;-76
2022/04/22 01:13:00;;;;;;;0.40;0.40;;;8.50;99.90;;;;;;4924051;28;20046;-76
2022/04/22 01:15:26;;;;;;;0.30;0.30;;;8.50;99.90;;;;;;4934141;28;20066;-76
2022/04/22 01:17:51;;;;;;;0.47;0.47;;;8.50;99.90;;;;;;4952341;28;20043;-77
2022/04/22 01:20:18;;;;;;;0.45;0.45;;;8.50;99.90;;;;;;4953432;28;20168;-77
2022/04/22 01:22:44;;;;;;;0.50;0.50;;;8.50;99.90;;;;;;4922120;28;20054;-76
2022/04/22 01:25:09;;;;;;;0.40;0.40;;;8.40;99.90;;;;;;4937270;28;20321;-77
2022/04/22 01:27:37;;;;;;;0.52;0.52;;;8.40;99.90;;;;;;5020219;28;20107;-76
2022/04/22 01:30:08;;;;;;;0.73;0.73;;;8.40;99.90;;;;;;4952862;28;20054;-76
2022/04/22 01:32:33;;;;;;;0.47;0.47;;;8.30;99.90;;;;;;4955945;28;20406;-77
2022/04/22 01:34:59;;;;;;;0.50;0.50;;;8.30;99.90;;;;;;4937491;28;20039;-75
2022/04/22 01:37:25;;;;;;;0.45;0.45;;;8.30;99.90;;;;;;4921166;28;20100;-77
2022/04/22 01:39:52;;;;;;;;;;;8.20;99.90;;;;;;4943848;28;20051;-79
2022/04/22 01:42:20;;;;;;;0.50;0.50;;;8.10;99.90;;;;;;4941625;28;19919;-79
2022/04/22 01:44:46;;;;;;;0.60;0.60;;;8.10;99.90;;;;;;4954300;28;20180;-78
2022/04/22 01:47:12;;;;;;;;;;;8.00;99.90;;;;;;4955150;28;20077;-77
2022/04/22 01:49:38;;;;;;;0.50;0.50;;;7.90;99.90;;;;;;4953818;28;19930;-78
2022/04/22 01:52:04;;;;;;;0.70;0.70;;;7.90;99.90;;;;;;4954524;28;20491;-78
2022/04/22 01:54:29;;;;;;;1.10;0.73;;;7.80;99.90;;;;;;4956073;28;20034;-76
2022/04/22 01:56:55;;;;;;;0.95;0.95;;;7.80;99.90;;;;;;4936054;28;20062;-76
2022/04/22 01:59:21;;;;;;;0.40;0.40;;;7.80;99.90;;;;;;4967713;28;20043;-77
2022/04/22 02:01:47;;;;;;;0.40;0.40;;;7.70;99.90;;;;;;4940282;28;20480;-78
2022/04/22 02:04:12;;;;;;;0.50;0.50;;;7.70;99.90;;;;;;4953369;28;20167;-77
2022/04/22 02:06:38;;;;;;;0.60;0.60;;;7.60;99.90;;;;;;4939167;28;20050;-74
2022/04/22 02:09:03;;;;;;;0.68;0.68;;;7.60;99.90;;;;;;4952840;28;20575;-77
2022/04/22 02:11:29;;;;;;;0.40;0.40;;;7.60;99.90;;;;;;4953291;28;20047;-76
2022/04/22 02:13:55;;;;;;;0.73;0.52;;;7.60;99.90;;;;;;4955035;28;20126;-78
2022/04/22 02:16:20;;;;;;;0.50;0.50;;;7.60;99.90;;;;;;4933633;28;20035;-76
2022/04/22 02:18:49;;;;;;;0.50;0.50;;;7.60;99.90;;;;;;4937475;28;20057;-79
2022/04/22 02:21:14;;;;;;;0.50;0.50;;;7.50;99.90;;;;;;4954431;28;20131;-77
2022/04/22 02:23:40;;;;;;;0.40;0.40;;;7.50;99.90;;;;;;4925787;28;20042;-76
2022/04/22 02:26:06;;;;;;;0.38;0.38;;;7.40;99.90;;;;;;4923966;28;20047;-77
2022/04/22 02:28:32;;;;;;;;;;;7.40;99.90;;;;;;4922482;28;20054;-76
2022/04/22 02:31:08;;;;;;;0.50;0.50;;;7.40;99.90;;;;;;4942379;28;19926;-79
2022/04/22 02:33:38;;;;;;;0.47;0.47;;;7.30;99.90;;;;;;4940484;28;20444;-76
2022/04/22 02:36:06;;;;;;;0.40;0.40;;;7.30;99.90;;;;;;4959570;28;20440;-77
2022/04/22 02:38:33;;;;;;;0.50;0.50;;;7.30;99.90;;;;;;4945219;28;20118;-76
2022/04/22 02:46:28;;;;;;;0.60;0.60;;;7.20;99.90;;;;;;4942259;28;20134;-76
2022/04/22 02:48:58;;;;;;;0.40;0.40;;;7.20;99.90;;;;;;4938630;28;20039;-75
2022/04/22 02:51:24;;;;;;;0.60;0.60;;;7.10;99.90;;;;;;4954911;28;20035;-76
2022/04/22 02:53:51;;;;;;;0.50;0.50;;;7.00;99.90;;;;;;4974129;28;20392;-77
2022/04/22 02:56:18;;;;;;;0.40;0.40;;;7.00;99.90;;;;;;4925189;28;20047;-78
2022/04/22 02:58:45;;;;;;;0.55;0.55;;;6.90;99.90;;;;;;4938779;28;20076;-77
2022/04/22 03:01:11;;;;;;;0.52;0.52;;;6.90;99.90;;;;;;4925270;28;20065;-76
2022/04/22 03:03:36;;;;;;;0.40;0.40;;;6.90;99.90;;;;;;4955784;28;20043;-76
2022/04/22 03:06:03;;;;;;;2.25;2.15;;;6.90;99.90;;;;;;4938591;28;20069;-76
2022/04/22 03:08:29;;;;;;;;;;;6.90;99.90;;;;;;5040443;28;20062;-78
2022/04/22 03:10:55;;;;;;;0.65;0.65;;;6.90;99.90;;;;;;4920825;28;19926;-77
2022/04/22 03:13:21;;;;;;;0.57;0.57;;;6.90;99.90;;;;;;4923013;28;20551;-77
2022/04/22 03:15:47;;;;;;;0.60;0.60;;;6.90;99.90;;;;;;4959387;28;20046;-77
2022/04/22 03:18:13;;;;;;;0.40;0.40;;;6.90;99.90;;;;;;4956515;28;20393;-78
2022/04/22 03:20:39;;;;;;;0.60;0.60;;;6.90;99.90;;;;;;4939747;28;20177;-78
2022/04/22 03:23:05;;;;;;;0.70;0.70;;;7.00;99.90;;;;;;4953322;28;20049;-78
2022/04/22 03:25:31;;;;;;;0.43;0.43;;;7.00;99.90;;;;;;4940603;28;20078;-79
2022/04/22 03:27:56;;;;;;;0.60;0.60;;;7.00;99.90;;;;;;4953435;28;20088;-76
2022/04/22 03:30:22;;;;;;;0.50;0.50;;;6.90;99.90;;;;;;4957851;28;20499;-76
2022/04/22 03:32:48;;;;;;;0.60;0.60;;;6.90;99.90;;;;;;4939994;28;20373;-78
2022/04/22 03:35:13;;;;;;;0.70;0.70;;;6.90;99.90;;;;;;4936963;28;20138;-76
2022/04/22 03:37:41;;;;;;;0.90;0.90;;;6.90;99.90;;;;;;4939306;28;20042;-78
2022/04/22 03:40:09;;;;;;;0.55;0.55;;;6.80;99.90;;;;;;4927455;28;20073;-76
2022/04/22 03:42:36;;;;;;;0.40;0.40;;;6.70;99.90;;;;;;4953362;28;20129;-76
2022/04/22 03:45:03;;;;;;;0.43;0.43;;;6.60;99.90;;;;;;4937233;28;20059;-76
2022/04/22 03:47:29;;;;;;;0.80;0.80;;;6.60;99.90;;;;;;4939923;28;20119;-76
2022/04/22 03:49:55;;;;;;;0.50;0.50;;;6.40;99.90;;;;;;4909916;28;20054;-78
2022/04/22 03:52:21;;;;;;;0.50;0.50;;;6.50;99.90;;;;;;4939034;28;20046;-77
2022/04/22 03:54:47;;;;;;;0.60;0.60;;;6.40;99.90;;;;;;4937696;28;20077;-77
2022/04/22 04:00:03;;;;;;;0.50;0.50;;;6.30;99.90;;;;;;4956510;28;20058;-76
2022/04/22 04:02:29;;;;;;;0.40;0.40;;;6.30;99.90;;;;;;4952271;28;20039;-75
2022/04/22 04:04:54;;;;;;;0.63;0.63;;;6.20;99.90;;;;;;4956372;28;20065;-77
2022/04/22 04:07:20;;;;;;;0.60;0.60;;;6.20;99.90;;;;;;4941225;28;20050;-77
2022/04/22 04:18:01;;;;;;;0.50;0.50;;;6.00;99.90;;;;;;4955437;28;19922;-78
2022/04/22 04:23:17;;;;;;;0.57;0.57;;;5.90;99.90;;;;;;4957073;28;20085;-75
2022/04/22 04:25:44;;;;;;;0.70;0.70;;;6.20;99.90;;;;;;4942542;28;20404;-77
2022/04/22 04:28:11;;;;;;;0.60;0.60;;;5.80;99.90;;;;;;4954872;28;20138;-80
2022/04/22 04:30:42;;;;;;;0.60;0.60;;;5.80;99.90;;;;;;4955445;28;20046;-80
2022/04/22 04:33:10;;;;;;;0.50;0.50;;;5.80;99.90;;;;;;4907672;28;20031;-77
2022/04/22 04:35:46;;;;;;;0.40;0.40;;;5.80;99.90;;;;;;5020666;28;20154;-76
2022/04/22 04:38:15;;;;;;;0.70;0.70;;;5.80;99.90;;;;;;4970659;28;20046;-78
2022/04/22 04:40:41;;;;;;;0.57;0.57;;;5.80;99.90;;;;;;4954713;28;20100;-76
2022/04/22 04:43:06;;;;;;;0.50;0.50;;;5.80;99.90;;;;;;4953382;28;20054;-78
2022/04/22 04:45:33;;;;;;;0.50;0.50;;;5.70;99.90;;;;;;4956147;28;20510;-77
2022/04/22 04:47:59;;;;;;;0.60;0.60;;;5.80;99.90;;;;;;4923640;28;20057;-75
2022/04/22 04:50:25;;;;;;;0.52;0.52;;;5.80;99.90;;;;;;4955242;28;20070;-76
2022/04/22 04:52:51;;;;;;;0.70;0.70;;;5.90;99.90;;;;;;4937720;28;20050;-78
2022/04/22 04:55:17;;;;;;;0.50;0.50;;;5.90;99.90;;;;;;4938314;28;20058;-77
2022/04/22 04:57:43;;;;;;;0.68;0.68;;;5.90;99.90;;;;;;4939023;28;20050;-77
2022/04/22 05:00:10;;;;;;;0.60;0.60;;;5.90;99.90;;;;;;4937763;28;20514;-79
2022/04/22 05:02:38;;;;;;;0.50;0.50;;;6.00;99.90;;;;;;4934526;28;20046;-77
2022/04/22 05:05:06;;;;;;;0.60;0.60;;;6.00;99.90;;;;;;4939193;28;20055;-78
2022/04/22 05:07:45;;;;;;;0.57;0.57;;;6.10;99.90;;;;;;4954513;28;20047;-76
2022/04/22 05:10:10;;;;;;;0.60;0.60;;;6.10;99.90;;;;;;5014974;28;20039;-79
2022/04/22 05:12:36;;;;;;;0.50;0.50;;;6.20;99.90;;;;;;4915346;28;20373;-80
2022/04/22 05:15:02;;;;;;;0.57;0.57;;;6.30;99.90;;;;;;4937267;28;20031;-79
2022/04/22 05:17:27;;;;;;;0.68;0.68;;;6.30;99.90;;;;;;4954878;28;20090;-76
2022/04/22 05:19:53;;;;;;;0.50;0.50;;;6.30;99.90;;;;;;4938746;28;20042;-77
2022/04/22 05:22:19;;;;;;;0.50;0.50;;;6.40;99.90;;;;;;4953537;28;20164;-79
2022/04/22 05:24:45;;;;;;;0.73;0.73;;;6.40;99.90;;;;;;4940241;28;20046;-78
2022/04/22 05:27:10;;;;;;;0.57;0.57;;;6.50;99.90;;;;;;4954458;28;20369;-77
2022/04/22 05:32:38;;;;;;;0.55;0.55;;;6.60;99.90;;;;;;4955824;28;20948;-75
2022/04/22 05:35:06;;;;;;;0.60;0.60;;;6.60;99.90;;;;;;4955356;28;20074;-76
2022/04/22 05:37:45;;;;;;;0.50;0.50;;;6.70;99.90;;;;;;4938377;28;20066;-76
2022/04/22 05:40:12;;;;;;;0.70;0.70;;;6.80;99.90;;;;;;4940228;28;20047;-77
2022/04/22 05:42:38;;;;;;;0.82;0.82;;;6.80;99.90;;;;;;4954456;28;20042;-77
2022/04/22 05:45:08;;;;;;;0.50;0.50;;;6.90;99.90;;;;;;5034201;28;20076;-77
2022/04/22 05:47:34;;;;;;;0.50;0.50;;;6.90;99.90;;;;;;5019927;28;20050;-74
2022/04/22 05:50:01;;;;;;;0.52;0.52;;;7.00;99.90;;;;;;4939884;28;20926;-75
2022/04/22 05:52:27;;;;;;;0.60;0.60;;;7.10;99.90;;;;;;4940346;28;20058;-77
2022/04/22 05:54:54;;;;;;;0.63;0.63;;;7.10;99.90;;;;;;4952456;28;20039;-77
2022/04/22 05:57:19;;;;;;;0.50;0.50;;;7.20;99.90;;;;;;4952836;28;20081;-76
2022/04/22 05:59:46;;;;;;;0.50;0.50;;;7.30;99.90;;;;;;4954350;28;20074;-78
2022/04/22 06:02:11;;;;;;;;;;;7.40;99.90;;;;;;4957362;28;20058;-76
2022/04/22 06:04:37;;;;;;;0.50;0.50;;;7.40;99.90;;;;;;4954471;28;19937;-77
2022/04/22 06:07:03;;;;;;;0.68;0.68;;;7.50;99.90;;;;;;4954299;28;20050;-75
2022/04/22 06:12:13;;;;;;;0.47;0.47;;;7.60;99.90;;;;;;4943273;28;20045;-75
2022/04/22 06:14:39;;;;;;;0.50;0.50;;;7.70;99.90;;;;;;4957730;28;20042;-78
2022/04/22 06:17:05;;;;;;;0.40;0.40;;;7.90;99.90;;;;;;4957037;28;20046;-79
2022/04/22 06:19:31;;;;;;;0.40;0.40;;;8.00;99.90;;;;;;4958031;28;20043;-78
2022/04/22 06:21:57;;;;;;;0.60;0.60;;;8.10;99.90;;;;;;4959901;28;20050;-78
2022/04/22 06:24:23;;;;;;;0.50;0.50;;;8.60;99.90;;;;;;4948869;28;20038;-76
2022/04/22 06:26:49;;;;;;;0.30;0.30;;;8.30;99.90;;;;;;4969386;28;20055;-78
2022/04/22 06:29:21;;;;;;;0.40;0.40;;;8.30;99.90;;;;;;4938837;28;20046;-77
2022/04/22 06:31:47;;;;;;;0.40;0.40;;;8.40;99.90;;;;;;4959874;28;20137;-79
2022/04/22 06:34:14;;;;;;;0.45;0.45;;;8.50;99.90;;;;;;4967889;28;20507;-76
2022/04/22 06:36:40;;;;;;;0.50;0.50;;;8.50;99.90;;;;;;4968002;28;20047;-76
2022/04/22 06:39:06;;;;;;;;;;;8.60;99.90;;;;;;4955569;28;20120;-77
2022/04/22 06:47:18;;;;;;;0.50;0.50;;;8.90;99.90;;;;;;4968399;28;20069;-78
2022/04/22 06:49:44;;;;;;;0.40;0.40;;;9.00;99.90;;;;;;4969984;28;20047;-78
2022/04/22 06:52:10;;;;;;;0.30;0.30;;;9.10;99.90;;;;;;4973383;28;20039;-78
2022/04/22 06:54:36;;;;;;;0.50;0.50;;;9.10;99.90;;;;;;4982292;28;20119;-78
2022/04/22 06:57:03;;;;;;;0.63;0.63;;;9.20;99.90;;;;;;4960187;28;20035;-75
2022/04/22 06:59:31;;;;;;;0.82;0.82;;;9.30;99.90;;;;;;4952363;28;20035;-75
2022/04/22 07:01:57;;;;;;;0.50;0.50;;;9.40;99.90;;;;;;4964824;28;20050;-75
2022/04/22 07:04:24;;;;;;;0.35;0.35;;;9.50;99.90;;;;;;4952402;28;20046;-77
2022/04/22 07:06:51;;;;;;;0.40;0.40;;;9.50;99.90;;;;;;4951577;28;20476;-76
2022/04/22 07:09:17;;;;;;;0.30;0.30;;;9.60;99.90;;;;;;4958823;28;20069;-77
2022/04/22 07:11:44;;;;;;;;;;;9.70;99.90;;;;;;4969388;28;20050;-74
2022/04/22 07:14:10;;;;;;;0.40;0.40;;;9.80;99.90;;;;;;4949290;28;20048;-75
2022/04/22 07:16:42;;;;;;;0.30;0.30;;;9.80;99.90;;;;;;4967878;28;20448;-75
2022/04/22 07:19:08;;;;;;;0.40;0.40;;;9.90;99.90;;;;;;4963617;28;20111;-74
2022/04/22 07:21:34;;;;;;;0.20;0.20;;;10.00;99.90;;;;;;4966341;28;20411;-74
2022/04/22 07:24:00;;;;;;;1.10;1.10;;;10.00;99.90;;;;;;4967472;28;20054;-76
2022/04/22 07:26:27;;;;;;;0.57;0.57;;;10.10;99.90;;;;;;4970392;28;20050;-77
2022/04/22 07:28:56;;;;;;;0.45;0.45;;;10.00;99.90;;;;;;4951456;28;20046;-77
2022/04/22 07:31:22;;;;;;;0.40;0.40;;;10.10;99.90;;;;;;4966741;28;20077;-75
2022/04/22 07:33:49;;;;;;;0.30;0.30;;;10.20;99.90;;;;;;4980447;28;20177;-76
2022/04/22 07:36:15;;;;;;;0.40;0.40;;;10.20;99.90;;;;;;4991432;28;20044;-74
2022/04/22 07:38:41;;;;;;;0.43;0.43;;;10.30;99.90;;;;;;4981612;28;21036;-74
2022/04/22 07:41:08;;;;;;;0.50;0.50;;;10.40;99.90;;;;;;4986052;28;20044;-76
2022/04/22 07:49:05;;;;;;;0.28;0.28;;;10.50;99.90;;;;;;4976163;28;20049;-76
2022/04/22 07:51:31;;;;;;;0.30;0.30;;;10.60;99.90;;;;;;4976232;28;20123;-75
2022/04/22 07:53:57;;;;;;;0.63;0.63;;;10.70;99.90;;;;;;4994758;28;20130;-77
2022/04/22 07:56:25;;;;;;;0.40;0.40;;;10.80;99.90;;;;;;4985856;28;20047;-75
2022/04/22 07:58:51;;;;;;;0.40;0.40;;;10.90;99.90;;;;;;4978261;28;20042;-76
2022/04/22 08:01:18;;;;;;;0.40;0.40;;;11.00;99.90;;;;;;4960816;28;20470;-76
2022/04/22 08:03:44;;;;;;;0.50;0.50;;;11.20;99.90;;;;;;4977121;28;20111;-75
2022/04/22 08:06:11;;;;;;;0.40;0.40;;;11.30;99.90;;;;;;4971953;28;20260;-77
2022/04/22 08:08:37;;;;;;;0.30;0.30;;;11.30;99.90;;;;;;4931371;28;20537;-75
2022/04/22 08:11:02;;;;;;;0.35;0.35;;;11.40;99.90;;;;;;4979329;28;20062;-74
2022/04/22 08:13:29;;;;;;;0.57;0.57;;;11.40;99.90;;;;;;4958744;28;20086;-74
2022/04/22 08:15:55;;;;;;;0.30;0.30;;;11.40;99.90;;;;;;4958707;28;20427;-75
2022/04/22 08:18:20;;;;;;;0.85;0.85;;;11.50;99.90;;;;;;4982213;28;20043;-75
2022/04/22 08:20:46;;;;;;;1.00;0.95;;;11.60;99.90;;;;;;4979730;28;20108;-76
2022/04/22 08:23:12;;;;;;;0.40;0.40;;;11.70;99.90;;;;;;4977224;28;20137;-76
2022/04/22 08:25:38;;;;;;;0.32;0.32;;;11.80;99.90;;;;;;4969616;28;20097;-75
2022/04/22 08:28:04;;;;;;;0.40;0.40;;;11.90;99.90;;;;;;4942601;28;20054;-76
2022/04/22 08:30:30;;;;;;;;;;;12.00;99.90;;;;;;4966199;28;20477;-76
2022/04/22 08:32:56;;;;;;;0.20;0.20;;;12.00;99.90;;;;;;4968558;28;19921;-75
2022/04/22 08:35:22;;;;;;;;;;;12.10;99.90;;;;;;4994570;28;20034;-77
2022/04/22 08:37:48;;;;;;;0.30;0.30;;;12.20;99.90;;;;;;4967790;28;19922;-76
2022/04/22 08:40:14;;;;;;;0.40;0.40;;;12.20;99.90;;;;;;4970457;28;20125;-78
2022/04/22 08:42:43;;;;;;;0.40;0.40;;;12.30;99.90;;;;;;4959524;28;20038;-78
2022/04/22 08:45:10;;;;;;;0.30;0.30;;;12.40;99.90;;;;;;4968006;28;20126;-76
2022/04/22 08:50:26;;;;;;;0.30;0.30;;;12.30;99.90;;;;;;4965452;28;19929;-76
2022/04/22 08:52:57;;;;;;;0.60;0.60;;;12.40;99.90;;;;;;4947167;28;20051;-75
2022/04/22 08:55:25;;;;;;;0.38;0.38;;;12.40;99.90;;;;;;4957073;28;20039;-75
2022/04/22 08:57:53;;;;;;;0.30;0.30;;;12.50;99.90;;;;;;4969340;28;20055;-76
2022/04/22 09:00:22;;;;;;;0.43;0.43;;;12.60;99.90;;;;;;4963711;28;20450;-75
2022/04/22 09:02:48;;;;;;;0.45;0.45;;;12.60;99.90;;;;;;4967334;28;20078;-76
2022/04/22 09:05:15;;;;;;;4.13;0.85;;;12.70;99.90;;;;;;4952570;28;20447;-74
2022/04/22 09:07:42;;;;;;;0.38;0.38;;;12.80;99.90;;;;;;4952213;28;20050;-75
2022/04/22 09:10:09;;;;;;;0.45;0.45;;;12.80;99.90;;;;;;4955358;28;20078;-76
2022/04/22 09:12:35;;;;;;;0.30;0.30;;;12.80;99.90;;;;;;4983818;28;20042;-76
2022/04/22 09:15:01;;;;;;;0.38;0.38;;;12.70;99.90;;;;;;4951761;28;20050;-74
2022/04/22 09:17:29;;;;;;;0.30;0.30;;;12.80;99.90;;;;;;4952826;28;20035;-77
2022/04/22 09:19:57;;;;;;;0.52;0.50;;;12.90;99.90;;;;;;4967539;28;20104;-75
2022/04/22 09:22:28;;;;;;;0.20;0.20;;;13.10;99.90;;;;;;4952572;28;20050;-75
2022/04/22 09:24:55;;;;;;;0.40;0.40;;;13.10;99.90;;;;;;4983869;28;20081;-77
2022/04/22 09:27:35;;;;;;;0.52;0.52;;;13.20;99.90;;;;;;4980478;28;20066;-77
2022/04/22 09:30:09;;;;;;;0.35;0.35;;;13.30;99.90;;;;;;4967329;28;20083;-77
2022/04/22 09:32:39;;;;;;;0.65;0.65;;;13.40;99.90;;;;;;4951914;28;20134;-76
2022/04/22 09:35:13;;;;;;;0.30;0.30;;;13.50;99.90;;;;;;4951260;28;20045;-75
2022/04/22 09:43:33;;;;;;;0.28;0.28;;;13.80;99.90;;;;;;4967056;28;20069;-75
2022/04/22 09:45:59;;;;;;;0.30;0.30;;;13.90;99.90;;;;;;4939364;28;20125;-75
2022/04/22 09:48:44;;;;;;;1.30;1.30;;;14.00;99.90;;;;;;4968694;28;20049;-75
2022/04/22 09:51:30;;;;;;;0.40;0.40;;;14.10;99.90;;;;;;4963323;28;20049;-74
2022/04/22 09:54:01;;;;;;;0.40;0.40;;;14.10;99.90;;;;;;4968035;28;20046;-76
2022/04/22 09:56:28;;;;;;;0.35;0.35;;;14.20;99.90;;;;;;4983989;28;20660;-73
2022/04/22 09:58:55;;;;;;;0.20;0.20;;;14.20;99.90;;;;;;4963021;28;20046;-74
2022/04/22 10:01:24;;;;;;;0.30;0.30;;;14.30;99.90;;;;;;4964809;28;20065;-74
2022/04/22 10:03:51;;;;;;;0.40;0.40;;;14.20;99.90;;;;;;4951412;28;20197;-75
2022/04/22 10:06:19;;;;;;;0.82;0.82;;;14.10;99.90;;;;;;4967215;28;20061;-74
2022/04/22 10:08:46;;;;;;;0.30;0.30;;;14.20;99.90;;;;;;4964343;28;20118;-76
2022/04/22 10:11:17;;;;;;;0.30;0.30;;;14.30;99.90;;;;;;4944178;28;20372;-74
2022/04/22 10:13:46;;;;;;;;;;;14.50;99.90;;;;;;4968410;28;20491;-75
2022/04/22 10:16:13;;;;;;;0.30;0.30;;;14.60;99.90;;;;;;4967802;28;19925;-74
2022/04/22 10:18:41;;;;;;;0.63;0.63;;;14.70;99.90;;;;;;4967658;28;20047;-75
2022/04/22 10:21:07;;;;;;;1.30;1.30;;;14.70;99.90;;;;;;4967109;28;20051;-75
2022/04/22 10:23:34;;;;;;;0.45;0.45;;;14.80;99.90;;;;;;4967305;28;20477;-75
2022/04/22 10:26:05;;;;;;;0.47;0.47;;;14.90;99.90;;;;;;4983427;28;20047;-75
2022/04/22 10:28:31;;;;;;;0.30;0.30;;;15.00;99.90;;;;;;4954115;28;20171;-75
2022/04/22 10:31:00;;;;;;;0.35;0.35;;;15.00;99.90;;;;;;4983076;28;20376;-73
2022/04/22 10:33:46;;;;;;;0.40;0.40;;;15.10;99.90;;;;;;4960335;28;20105;-75
2022/04/22 10:36:14;;;;;;;0.30;0.30;;;15.30;99.90;;;;;;4962775;28;20483;-75
2022/04/22 10:38:44;;;;;;;0.88;0.55;;;15.40;99.90;;;;;;4967573;28;20111;-73
2022/04/22 10:41:20;;;;;;;0.30;0.30;;;15.40;99.90;;;;;;4954428;28;20075;-77
2022/04/22 10:47:13;;;;;;;;;;;15.50;99.90;;;;;;4964476;28;20487;-74
2022/04/22 10:49:37;;;;;;;0.20;0.20;;;15.60;99.90;;;;;;4953656;28;20060;-75
2022/04/22 10:52:22;;;;;;;1.38;1.27;;;15.80;99.90;;;;;;5013759;28;20047;-76
2022/04/22 10:54:58;;;;;;;0.40;0.40;;;15.80;99.90;;;;;;4963354;28;20039;-75
2022/04/22 10:57:24;;;;;;;;;;;16.00;99.90;;;;;;4962804;28;20346;-75
2022/04/22 11:00:27;;;;;;;0.30;0.30;;;16.10;99.90;;;;;;4966258;28;19937;-74
2022/04/22 11:03:09;;;;;;;0.30;0.30;;;16.20;99.90;;;;;;4959072;28;20084;-73
2022/04/22 11:05:36;;;;;;;0.40;0.40;;;16.20;99.90;;;;;;4985324;28;20188;-75
2022/04/22 11:08:05;;;;;;;0.35;0.35;;;16.30;99.90;;;;;;4994750;28;20080;-74
2022/04/22 11:10:45;;;;;;;0.35;0.35;;;16.40;99.90;;;;;;4975367;28;20133;-75
2022/04/22 11:13:34;;;;;;;0.20;0.20;;;16.50;99.90;;;;;;4966635;28;20103;-72
2022/04/22 11:16:05;;;;;;;0.50;0.50;;;16.60;99.90;;;;;;4981564;28;20067;-75
2022/04/22 11:18:31;;;;;;;1.75;1.15;;;16.70;99.90;;;;;;4962121;28;20054;-75
2022/04/22 11:21:16;;;;;;;0.47;0.47;;;16.70;99.90;;;;;;4969371;28;20042;-73
2022/04/22 11:23:46;;;;;;;0.60;0.60;;;16.70;99.90;;;;;;4945089;28;20053;-73
2022/04/22 11:26:16;;;;;;;0.35;0.35;;;16.70;99.90;;;;;;4967838;28;20049;-75
2022/04/22 11:28:45;;;;;;;0.32;0.32;;;16.80;99.90;;;;;;4968289;28;20122;-73
2022/04/22 11:31:34;;;;;;;0.60;0.60;;;16.90;99.90;;;;;;4966512;28;20453;-72
2022/04/22 11:34:16;;;;;;;0.35;0.35;;;17.00;99.90;;;;;;4972045;28;21814;-75
2022/04/22 11:36:52;;;;;;;0.30;0.30;;;17.20;99.90;;;;;;4983914;28;20443;-74
2022/04/22 11:39:23;;;;;;;0.32;0.32;;;17.20;99.90;;;;;;4966113;28;20035;-75
2022/04/22 11:42:01;;;;;;;0.30;0.30;;;17.20;99.90;;;;;;4968444;28;20226;-75
2022/04/22 11:44:30;;;;;;;0.40;0.40;;;17.30;99.90;;;;;;4953108;28;20384;-73
2022/04/22 11:47:00;;;;;;;0.30;0.30;;;17.40;99.90;;;;;;4949539;28;20172;-74
2022/04/22 11:49:29;;;;;;;0.40;0.40;;;17.40;99.90;;;;;;4958166;28;20051;-76
2022/04/22 11:52:00;;;;;;;0.40;0.40;;;17.30;99.80;;;;;;4967054;28;20059;-81
2022/04/22 11:54:27;;;;;;;0.50;0.50;;;17.20;99.90;;;;;;4968612;28;20046;-74
2022/04/22 11:56:53;;;;;;;0.40;0.40;;;17.30;99.90;;;;;;4968401;28;20092;-79
2022/04/22 11:59:20;;;;;;;0.30;0.30;;;17.30;99.80;;;;;;4966387;28;20173;-78
2022/04/22 12:10:06;;;;;;;0.55;0.55;;;17.50;99.90;;;;;;4968092;28;20054;-74
2022/04/22 12:12:32;;;;;;;0.45;0.45;;;17.60;99.90;;;;;;4973474;28;20081;-75
2022/04/22 12:15:07;;;;;;;0.40;0.40;;;17.80;98.60;;;;;;4950867;28;20047;-74
2022/04/22 12:17:36;;;;;;;0.30;0.30;;;17.80;97.80;;;;;;4977733;28;20393;-76
2022/04/22 12:20:02;;;;;;;;;;;17.90;98.00;;;;;;4968028;28;20420;-74
2022/04/22 12:22:31;;;;;;;0.40;0.40;;;18.10;97.30;;;;;;4952499;28;19928;-75
2022/04/22 12:25:16;;;;;;;0.30;0.30;;;18.20;95.40;;;;;;4967610;28;20419;-76
2022/04/22 12:27:43;;;;;;;0.38;0.38;;;18.30;98.50;;;;;;4971302;28;20055;-75
2022/04/22 12:30:11;;;;;;;0.65;0.50;;;18.40;97.20;;;;;;4953004;28;20051;-76
2022/04/22 12:32:38;;;;;;;0.40;0.40;;;18.60;98.10;;;;;;4956367;28;20499;-76
2022/04/22 12:35:11;;;;;;;0.30;0.30;;;18.80;98.40;;;;;;4966317;28;20486;-76
2022/04/22 12:37:45;;;;;;;1.20;0.40;;;19.00;96.30;;;;;;4948573;28;20051;-74
2022/04/22 12:40:12;;;;;;;0.30;0.30;;;19.10;97.40;;;;;;4959090;28;20061;-74
2022/04/22 12:42:39;;;;;;;0.38;0.38;;;19.20;96.70;;;;;;4967205;28;20092;-74
2022/04/22 12:54:20;;;;;;;0.40;0.40;;;19.60;93.40;;;;;;4957249;28;20048;-74
2022/04/22 12:56:52;;;;;;;0.35;0.35;;;19.50;94.70;;;;;;4965562;28;20047;-75
2022/04/22 12:59:18;;;;;;;0.40;0.40;;;19.50;92.20;;;;;;4958519;28;20035;-75
2022/04/22 13:01:46;;;;;;;1.95;0.80;;;19.60;93.80;;;;;;4955132;28;20039;-74
2022/04/22 13:04:26;;;;;;;0.40;0.40;;;19.70;93.50;;;;;;4977283;28;20063;-73
2022/04/22 13:06:51;;;;;;;0.20;0.20;;;19.90;94.70;;;;;;4968648;28;20063;-74
2022/04/22 13:09:22;;;;;;;0.20;0.20;;;20.20;94.00;;;;;;4960032;28;20477;-75
2022/04/22 13:11:51;;;;;;;0.30;0.30;;;20.40;93.20;;;;;;4943274;28;20051;-77
2022/04/22 13:14:17;;;;;;;0.30;0.30;;;20.50;93.30;;;;;;4958506;28;20039;-76
2022/04/22 13:16:44;;;;;;;0.20;0.20;;;20.70;94.10;;;;;;4970705;28;20095;-77
2022/04/22 13:19:13;;;;;;;0.20;0.20;;;20.70;91.80;;;;;;4967659;28;20122;-79
2022/04/22 13:21:40;;;;;;;0.13;0.13;;;20.90;91.70;;;;;;4981073;28;20054;-77
2022/04/22 13:24:06;;;;;;;0.20;0.20;;;21.00;92.60;;;;;;4979978;28;20062;-76
2022/04/22 13:26:32;;;;;;;0.15;0.15;;;21.30;93.50;;;;;;4965198;28;20043;-75
2022/04/22 13:28:58;;;;;;;0.30;0.30;;;21.80;91.60;;;;;;4983738;28;20069;-74
2022/04/22 13:31:24;;;;;;;0.28;0.28;;;;;;;;;;4966276;28;20051;-77
2022/04/22 13:33:50;;;;;;;0.13;0.13;;;22.20;95.70;;;;;;4977631;28;20120;-75
2022/04/22 13:36:18;;;;;;;0.20;0.20;;;22.40;90.00;;;;;;4967731;28;20047;-77
2022/04/22 13:38:44;;;;;;;0.32;0.32;;;22.60;90.60;;;;;;4967680;28;20122;-77
2022/04/22 13:41:10;;;;;;;0.20;0.20;;;22.50;79.60;;;;;;4967827;28;20217;-76
2022/04/22 13:43:37;;;;;;;0.10;0.10;;;22.60;90.60;;;;;;4966784;28;20050;-75
2022/04/22 13:54:17;;;;;;;0.20;0.20;;;22.60;80.00;;;;;;4962578;28;20393;-75
2022/04/22 13:56:43;;;;;;;0.28;0.28;;;22.40;84.00;;;;;;4959359;28;20039;-75
2022/04/22 13:59:08;;;;;;;0.30;0.30;;;22.30;80.40;;;;;;4961694;28;20141;-75
2022/04/22 14:01:35;;;;;;;0.20;0.20;;;22.20;83.10;;;;;;4968061;28;20380;-72
2022/04/22 14:04:00;;;;;;;0.05;0.05;;;22.30;81.90;;;;;;4966788;28;20484;-75
2022/04/22 14:06:27;;;;;;;0.32;0.32;;;22.70;83.80;;;;;;4949831;28;20043;-75
2022/04/22 14:08:53;;;;;;;0.30;0.30;;;23.00;79.90;;;;;;4930550;29;20185;-78
2022/04/22 14:11:18;;;;;;;0.20;0.20;;;23.40;80.10;;;;;;4961798;28;20130;-75
2022/04/22 14:13:45;;;;;;;0.10;0.10;;;23.80;82.40;;;;;;4964331;28;20047;-75
2022/04/22 14:16:12;;;;;;;0.10;0.10;;;24.00;74.80;;;;;;4950147;28;20050;-75
2022/04/22 14:18:38;;;;;;;0.17;0.10;;;24.20;78.90;;;;;;4975949;28;20066;-75
2022/04/22 14:21:04;;;;;;;0.22;0.22;;;24.60;76.60;;;;;;4957161;28;20155;-74